createdAt,value
2022-11-15T00:01:30.457Z,60.80
2022-11-15T00:04:21.977Z,59.40
2022-11-15T00:07:33.167Z,63.00
2022-11-15T00:10:23.763Z,66.90
2022-11-15T00:13:15.361Z,61.50
2022-11-15T00:16:09.928Z,66.80
2022-11-15T00:19:03.216Z,69.30
2022-11-15T00:21:54.323Z,63.60
2022-11-15T00:24:45.189Z,65.10
2022-11-15T00:27:36.445Z,65.90
2022-11-15T00:30:27.286Z,63.00
2022-11-15T00:33:18.206Z,61.00
2022-11-15T00:36:11.792Z,60.70
2022-11-15T00:39:03.251Z,64.50
2022-11-15T00:41:53.855Z,68.40
2022-11-15T00:44:44.756Z,68.60
2022-11-15T00:47:37.708Z,68.90
2022-11-15T00:50:28.966Z,72.50
2022-11-15T00:53:20.342Z,67.40
2022-11-15T00:56:11.411Z,66.30
2022-11-15T00:59:02.409Z,65.20
2022-11-15T01:01:53.359Z,70.10
2022-11-15T01:04:44.378Z,64.60
2022-11-15T01:07:35.668Z,65.60
2022-11-15T01:10:27.022Z,65.70
2022-11-15T01:13:17.732Z,69.80
2022-11-15T01:16:14.061Z,68.40
2022-11-15T01:19:05.153Z,69.50
2022-11-15T01:22:05.342Z,68.20
2022-11-15T01:25:00.148Z,73.90
2022-11-15T01:27:50.984Z,72.10
2022-11-15T01:30:43.840Z,71.60
2022-11-15T01:33:36.479Z,68.90
2022-11-15T01:36:27.887Z,71.40
2022-11-15T01:39:19.097Z,63.50
2022-11-15T01:42:14.074Z,66.30
2022-11-15T01:45:05.581Z,68.40
2022-11-15T01:47:58.297Z,71.30
2022-11-15T01:50:50.756Z,66.00
2022-11-15T01:53:43.994Z,66.20
2022-11-15T01:56:40.081Z,70.20
2022-11-15T01:59:32.191Z,66.40
2022-11-15T02:02:24.154Z,65.80
2022-11-15T02:05:15.322Z,66.00
2022-11-15T02:08:06.889Z,73.00
2022-11-15T02:10:59.947Z,70.00
2022-11-15T02:13:51.207Z,68.30
2022-11-15T02:16:51.202Z,66.00
2022-11-15T02:20:08.761Z,69.30
2022-11-15T02:23:18.078Z,65.70
2022-11-15T02:26:32.022Z,65.30
2022-11-15T02:29:37.377Z,65.40
2022-11-15T02:32:39.175Z,67.10
2022-11-15T02:35:39.629Z,62.60
2022-11-15T02:38:39.694Z,65.70
2022-11-15T02:41:41.524Z,65.80
2022-11-15T02:44:39.575Z,65.30
2022-11-15T02:47:33.158Z,69.00
2022-11-15T02:50:27.598Z,67.40
2022-11-15T02:53:19.399Z,66.30
2022-11-15T02:56:14.047Z,63.60
2022-11-15T02:59:43.925Z,61.10
2022-11-15T03:02:50.207Z,63.00
2022-11-15T03:05:53.779Z,62.80
2022-11-15T03:08:59.154Z,66.80
2022-11-15T03:11:56.353Z,65.50
2022-11-15T03:15:17.681Z,62.30
2022-11-15T03:18:18.905Z,63.80
2022-11-15T03:21:15.519Z,64.70
2022-11-15T03:24:08.748Z,64.90
2022-11-15T03:27:01.474Z,62.00
2022-11-15T03:30:20.960Z,64.60
2022-11-15T03:33:15.530Z,67.70
2022-11-15T03:36:07.219Z,64.50
2022-11-15T03:39:03.694Z,63.10
2022-11-15T03:42:07.321Z,68.00
2022-11-15T03:45:06.093Z,68.30
2022-11-15T03:48:01.525Z,63.20
2022-11-15T03:50:53.008Z,69.10
2022-11-15T03:53:44.741Z,67.80
2022-11-15T03:56:36.122Z,65.40
2022-11-15T03:59:26.961Z,79.20
2022-11-15T04:02:18.674Z,72.50
2022-11-15T04:05:10.216Z,74.10
2022-11-15T04:08:00.966Z,68.80
2022-11-15T04:10:54.778Z,69.30
2022-11-15T04:13:46.570Z,74.70
2022-11-15T04:16:43.590Z,71.30
2022-11-15T04:19:55.939Z,70.50
2022-11-15T04:23:04.686Z,73.20
2022-11-15T04:25:57.829Z,70.10
2022-11-15T04:29:02.794Z,66.30
2022-11-15T04:31:54.026Z,62.40
2022-11-15T04:34:45.031Z,69.50
2022-11-15T04:37:36.201Z,65.70
2022-11-15T04:40:29.937Z,62.10
2022-11-15T04:43:22.849Z,63.90
2022-11-15T04:46:13.943Z,65.70
2022-11-15T04:49:04.524Z,63.70
2022-11-15T04:51:55.377Z,63.20
2022-11-15T04:54:46.411Z,67.50
2022-11-15T04:57:37.374Z,70.20
2022-11-15T05:00:28.780Z,61.70
2022-11-15T05:03:37.487Z,58.40
2022-11-15T05:06:28.278Z,64.30
2022-11-15T05:09:20.152Z,64.50
2022-11-15T05:12:13.577Z,58.80
2022-11-15T05:15:05.994Z,65.10
2022-11-15T05:18:01.622Z,65.00
2022-11-15T05:20:52.519Z,62.40
2022-11-15T05:23:43.189Z,59.30
2022-11-15T05:26:34.387Z,65.00
2022-11-15T05:29:25.269Z,66.90
2022-11-15T05:32:16.375Z,62.40
2022-11-15T05:35:14.655Z,64.20
2022-11-15T05:38:09.560Z,66.80
2022-11-15T05:41:01.806Z,64.40
2022-11-15T05:44:23.563Z,60.30
2022-11-15T05:47:29.963Z,60.80
2022-11-15T05:50:22.390Z,60.10
2022-11-15T05:53:16.762Z,57.80
2022-11-15T05:56:08.867Z,55.40
2022-11-15T05:59:01.114Z,59.10
2022-11-15T06:01:54.792Z,57.90
2022-11-15T06:04:45.752Z,54.80
2022-11-15T06:07:37.736Z,61.20
2022-11-15T06:10:29.992Z,64.30
2022-11-15T06:13:21.152Z,58.50
2022-11-15T06:16:12.490Z,52.60
2022-11-15T06:19:06.647Z,52.00
2022-11-15T06:21:57.825Z,56.60
2022-11-15T06:24:49.134Z,57.20
2022-11-15T06:27:42.496Z,57.60
2022-11-15T06:30:33.447Z,60.70
2022-11-15T06:33:24.737Z,59.60
2022-11-15T06:36:18.241Z,61.50
2022-11-15T06:39:11.992Z,62.10
2022-11-15T06:42:02.634Z,65.10
2022-11-15T06:44:55.673Z,64.30
2022-11-15T06:47:49.680Z,59.30
2022-11-15T06:50:41.027Z,57.50
2022-11-15T06:53:35.482Z,58.80
2022-11-15T06:56:26.388Z,50.60
2022-11-15T06:59:17.344Z,52.60
2022-11-15T07:02:08.126Z,57.60
2022-11-15T07:04:59.222Z,58.20
2022-11-15T07:07:57.239Z,53.80
2022-11-15T07:10:48.156Z,54.10
2022-11-15T07:13:40.029Z,57.70
2022-11-15T07:16:30.768Z,55.50
2022-11-15T07:19:21.739Z,49.10
2022-11-15T07:22:12.348Z,52.60
2022-11-15T07:25:03.040Z,53.30
2022-11-15T07:27:59.730Z,53.70
2022-11-15T07:30:50.606Z,49.50
2022-11-15T07:33:41.271Z,55.20
2022-11-15T07:36:32.377Z,59.40
2022-11-15T07:39:23.363Z,51.90
2022-11-15T07:42:32.014Z,51.10
2022-11-15T07:45:23.305Z,55.40
2022-11-15T07:48:17.964Z,59.00
2022-11-15T07:51:13.874Z,50.70
2022-11-15T07:54:05.599Z,57.30
2022-11-15T07:56:57.888Z,55.40
2022-11-15T07:59:51.423Z,56.00
2022-11-15T08:02:42.932Z,71.80
2022-11-15T08:05:34.027Z,50.70
2022-11-15T08:08:25.060Z,49.40
2022-11-15T08:11:15.969Z,50.10
2022-11-15T08:14:46.325Z,51.30
2022-11-15T08:17:37.412Z,50.50
2022-11-15T08:20:31.143Z,79.00
2022-11-15T08:23:21.820Z,54.50
2022-11-15T08:26:13.410Z,89.50
2022-11-15T08:29:04.383Z,144.80
2022-11-15T08:31:58.514Z,122.50
2022-11-15T08:35:18.474Z,236.60
2022-11-15T08:38:16.426Z,122.70
2022-11-15T08:41:08.202Z,69.70
2022-11-15T08:43:59.232Z,54.40
2022-11-15T08:46:50.649Z,54.00
2022-11-15T08:49:43.773Z,57.50
2022-11-15T08:52:34.692Z,51.40
2022-11-15T08:55:25.855Z,51.10
2022-11-15T08:58:16.565Z,53.60
2022-11-15T09:01:08.146Z,49.70
2022-11-15T09:03:59.539Z,46.20
2022-11-15T09:06:50.517Z,47.40
2022-11-15T09:09:46.540Z,54.90
2022-11-15T09:12:38.156Z,53.90
2022-11-15T09:15:28.998Z,63.90
2022-11-15T09:18:22.390Z,47.00
2022-11-15T09:21:13.822Z,56.10
2022-11-15T09:24:05.332Z,49.40
2022-11-15T09:26:56.133Z,48.50
2022-11-15T09:29:49.962Z,46.90
2022-11-15T09:32:40.702Z,60.90
2022-11-15T09:35:31.504Z,51.60
2022-11-15T09:38:22.577Z,52.40
2022-11-15T09:41:40.198Z,54.30
2022-11-15T09:44:47.763Z,94.00
2022-11-15T09:48:11.743Z,91.00
2022-11-15T09:51:14.092Z,120.60
2022-11-15T09:56:47.392Z,88.00
2022-11-15T09:59:40.590Z,83.30
2022-11-15T10:02:26.033Z,70.10
2022-11-15T10:05:00.060Z,49.80
2022-11-15T10:07:42.798Z,49.70
2022-11-15T10:10:24.946Z,49.20
2022-11-15T10:12:57.573Z,47.70
2022-11-15T10:15:30.025Z,43.30
2022-11-15T10:18:23.445Z,45.50
2022-11-15T10:21:01.290Z,40.20
2022-11-15T10:23:34.286Z,39.50
2022-11-15T10:26:13.637Z,39.30
2022-11-15T10:28:46.330Z,43.80
2022-11-15T10:31:27.521Z,38.40
2022-11-15T10:34:12.643Z,44.20
2022-11-15T10:36:56.121Z,49.80
2022-11-15T10:39:28.928Z,50.90
2022-11-15T10:42:18.015Z,54.40
2022-11-15T10:44:50.438Z,53.70
2022-11-15T10:47:38.826Z,47.00
2022-11-15T10:50:33.165Z,48.10
2022-11-15T10:53:06.430Z,47.30
2022-11-15T10:55:39.398Z,43.30
2022-11-15T10:58:29.414Z,44.30
2022-11-15T11:01:13.174Z,46.70
2022-11-15T11:03:47.277Z,48.70
2022-11-15T11:06:23.624Z,51.30
2022-11-15T11:09:01.040Z,48.20
2022-11-15T11:11:52.034Z,47.10
2022-11-15T11:14:30.599Z,41.30
2022-11-15T11:17:11.439Z,41.80
2022-11-15T11:20:02.846Z,47.20
2022-11-15T11:22:47.032Z,43.50
2022-11-15T11:25:30.574Z,53.90
2022-11-15T11:28:19.716Z,53.00
2022-11-15T11:31:04.812Z,50.60
2022-11-15T11:33:44.223Z,48.70
2022-11-15T11:36:28.876Z,47.80
2022-11-15T11:39:21.461Z,50.80
2022-11-15T11:42:14.835Z,51.90
2022-11-15T11:45:01.292Z,48.40
2022-11-15T11:47:40.137Z,46.60
2022-11-15T11:50:20.827Z,46.90
2022-11-15T11:53:04.316Z,49.60
2022-11-15T11:55:40.174Z,44.40
2022-11-15T11:58:20.836Z,42.40
2022-11-15T12:00:57.729Z,45.90
2022-11-15T12:03:40.256Z,43.30
2022-11-15T12:06:26.935Z,42.50
2022-11-15T12:09:03.374Z,44.90
2022-11-15T12:11:44.204Z,49.80
2022-11-15T12:14:30.330Z,48.70
2022-11-15T12:17:05.366Z,45.00
2022-11-15T12:19:40.858Z,45.10
2022-11-15T12:22:22.227Z,48.70
2022-11-15T12:24:59.713Z,49.50
2022-11-15T12:27:39.109Z,50.60
2022-11-15T12:30:17.307Z,50.10
2022-11-15T12:32:57.949Z,52.10
2022-11-15T12:35:38.298Z,51.30
2022-11-15T12:38:36.498Z,49.50
2022-11-15T12:41:27.212Z,49.70
2022-11-15T12:44:00.275Z,50.90
2022-11-15T12:47:04.567Z,53.20
2022-11-15T12:49:50.320Z,50.60
2022-11-15T12:52:23.393Z,45.70
2022-11-15T12:55:04.185Z,47.80
2022-11-15T12:57:46.263Z,51.20
2022-11-15T13:00:48.131Z,54.90
2022-11-15T13:03:37.170Z,48.90
2022-11-15T13:06:44.950Z,49.70
2022-11-15T13:10:00.305Z,55.30
2022-11-15T13:12:53.184Z,51.00
2022-11-15T13:15:58.975Z,52.50
2022-11-15T13:18:45.077Z,54.00
2022-11-15T13:21:44.155Z,50.70
2022-11-15T13:24:21.161Z,53.00
2022-11-15T13:26:53.309Z,52.60
2022-11-15T13:29:25.590Z,56.70
2022-11-15T13:31:57.938Z,56.70
2022-11-15T13:37:36.768Z,63.20
2022-11-15T13:40:25.993Z,59.70
2022-11-15T13:42:58.767Z,58.70
2022-11-15T13:45:32.349Z,57.00
2022-11-15T13:48:08.137Z,58.50
2022-11-15T13:50:42.196Z,60.40
2022-11-15T13:53:15.653Z,55.80
2022-11-15T13:55:47.759Z,56.00
2022-11-15T13:58:24.131Z,63.30
2022-11-15T14:01:07.300Z,64.60
2022-11-15T14:03:49.574Z,74.50
2022-11-15T14:06:24.582Z,67.50
2022-11-15T14:09:21.867Z,67.90
2022-11-15T14:11:56.222Z,68.60
2022-11-15T14:14:30.491Z,67.90
2022-11-15T14:17:03.511Z,66.60
2022-11-15T14:19:42.008Z,129.70
2022-11-15T14:22:22.125Z,95.40
2022-11-15T14:25:15.188Z,69.10
2022-11-15T14:28:08.035Z,70.30
2022-11-15T14:30:40.922Z,92.20
2022-11-15T14:33:33.654Z,82.80
2022-11-15T14:36:13.038Z,72.00
2022-11-15T14:38:46.299Z,80.20
2022-11-15T14:41:27.404Z,71.40
2022-11-15T14:43:59.711Z,66.90
2022-11-15T14:46:32.068Z,59.50
2022-11-15T14:49:04.313Z,54.90
2022-11-15T14:51:36.529Z,50.30
2022-11-15T14:54:10.443Z,53.10
2022-11-15T14:56:43.864Z,51.80
2022-11-15T14:59:16.231Z,57.30
2022-11-15T15:01:48.553Z,50.90
2022-11-15T15:04:21.995Z,53.10
2022-11-15T15:06:56.655Z,51.10
2022-11-15T15:09:28.841Z,52.40
2022-11-15T15:12:05.910Z,57.90
2022-11-15T15:14:38.761Z,50.60
2022-11-15T15:17:11.219Z,51.40
2022-11-15T15:19:43.545Z,56.70
2022-11-15T15:22:19.927Z,60.20
2022-11-15T15:24:52.141Z,57.90
2022-11-15T15:27:24.382Z,48.90
2022-11-15T15:29:56.476Z,54.30
2022-11-15T15:32:28.738Z,56.80
2022-11-15T15:35:01.135Z,55.30
2022-11-15T15:37:35.032Z,53.10
2022-11-15T15:40:14.252Z,54.90
2022-11-15T15:42:46.569Z,58.20
2022-11-15T15:45:19.932Z,53.00
2022-11-15T15:47:53.201Z,49.80
2022-11-15T15:50:27.605Z,55.60
2022-11-15T15:53:02.899Z,57.10
2022-11-15T15:55:35.931Z,53.60
2022-11-15T15:58:09.261Z,58.90
2022-11-15T16:00:41.893Z,62.20
2022-11-15T16:03:14.091Z,57.80
2022-11-15T16:05:46.520Z,58.60
2022-11-15T16:08:23.577Z,53.60
2022-11-15T16:10:55.738Z,53.30
2022-11-15T16:13:29.901Z,53.40
2022-11-15T16:16:02.366Z,51.40
2022-11-15T16:18:35.677Z,56.00
2022-11-15T16:21:09.839Z,55.90
2022-11-15T16:23:44.516Z,58.90
2022-11-15T16:26:23.395Z,53.40
2022-11-15T16:28:56.006Z,59.10
2022-11-15T16:31:28.352Z,81.10
2022-11-15T16:34:00.580Z,68.70
2022-11-15T16:36:36.594Z,56.70
2022-11-15T16:39:10.789Z,73.50
2022-11-15T16:41:44.248Z,90.50
2022-11-15T16:44:16.752Z,67.50
2022-11-15T16:46:52.055Z,60.00
2022-11-15T16:49:24.805Z,63.70
2022-11-15T16:51:56.977Z,102.30
2022-11-15T16:54:29.117Z,126.00
2022-11-15T16:57:01.317Z,76.40
2022-11-15T16:59:38.129Z,72.70
2022-11-15T17:02:15.353Z,116.90
2022-11-15T17:04:47.900Z,101.40
2022-11-15T17:07:20.148Z,88.80
2022-11-15T17:09:55.118Z,97.70
2022-11-15T17:12:27.407Z,87.30
2022-11-15T17:14:59.567Z,98.40
2022-11-15T17:17:31.768Z,88.10
2022-11-15T17:20:05.145Z,62.20
2022-11-15T17:22:38.908Z,56.10
2022-11-15T17:25:12.364Z,53.30
2022-11-15T17:27:46.264Z,50.20
2022-11-15T17:30:20.477Z,50.90
2022-11-15T17:32:52.595Z,50.80
2022-11-15T17:35:24.697Z,53.10
2022-11-15T17:37:56.812Z,49.10
2022-11-15T17:40:28.969Z,49.10
2022-11-15T17:43:01.165Z,53.50
2022-11-15T17:45:33.397Z,49.60
2022-11-15T17:48:05.704Z,49.90
2022-11-15T17:50:38.177Z,53.40
2022-11-15T17:53:10.919Z,50.10
2022-11-15T17:55:43.259Z,53.50
2022-11-15T17:58:18.859Z,50.50
2022-11-15T18:00:51.523Z,54.30
2022-11-15T18:03:24.165Z,53.40
2022-11-15T18:05:56.426Z,50.80
2022-11-15T18:08:29.156Z,51.10
2022-11-15T18:11:11.253Z,53.90
2022-11-15T18:13:50.943Z,52.90
2022-11-15T18:16:27.402Z,52.00
2022-11-15T18:19:00.584Z,52.10
2022-11-15T18:21:34.807Z,55.70
2022-11-15T18:24:07.912Z,57.10
2022-11-15T18:26:39.978Z,48.50
2022-11-15T18:29:12.605Z,50.30
2022-11-15T18:31:47.669Z,48.10
2022-11-15T18:34:20.297Z,51.30
2022-11-15T18:36:54.448Z,58.80
2022-11-15T18:39:26.593Z,53.40
2022-11-15T18:41:58.737Z,59.70
2022-11-15T18:44:35.445Z,54.30
2022-11-15T18:47:12.119Z,45.30
2022-11-15T18:49:44.231Z,45.10
2022-11-15T18:52:16.431Z,46.90
2022-11-15T18:54:48.573Z,44.60
2022-11-15T18:57:20.824Z,41.40
2022-11-15T18:59:52.925Z,45.70
2022-11-15T19:02:24.998Z,46.90
2022-11-15T19:04:57.329Z,48.00
2022-11-15T19:07:29.602Z,45.30
2022-11-15T19:10:01.975Z,43.60
2022-11-15T19:12:34.376Z,43.40
2022-11-15T19:15:10.252Z,47.00
2022-11-15T19:17:42.763Z,43.60
2022-11-15T19:20:15.191Z,44.70
2022-11-15T19:22:50.989Z,41.70
2022-11-15T19:25:28.794Z,43.90
2022-11-15T19:28:00.980Z,42.10
2022-11-15T19:30:37.167Z,38.40
2022-11-15T19:33:09.712Z,44.40
2022-11-15T19:35:45.450Z,43.10
2022-11-15T19:38:17.929Z,42.70
2022-11-15T19:43:36.362Z,40.10
2022-11-15T19:46:11.679Z,40.20
2022-11-15T19:48:44.624Z,37.90
2022-11-15T19:51:19.784Z,36.60
2022-11-15T19:54:02.434Z,37.50
2022-11-15T19:56:35.932Z,37.20
2022-11-15T19:59:08.305Z,32.70
2022-11-15T20:01:40.808Z,33.40
2022-11-15T20:04:34.776Z,34.90
2022-11-15T20:07:07.018Z,33.40
2022-11-15T20:09:39.675Z,34.50
2022-11-15T20:12:12.205Z,33.70
2022-11-15T20:14:46.017Z,34.10
2022-11-15T20:17:19.189Z,38.30
2022-11-15T20:19:52.365Z,38.80
2022-11-15T20:22:24.773Z,58.00
2022-11-15T20:24:57.206Z,45.60
2022-11-15T20:27:54.873Z,39.30
2022-11-15T20:30:27.277Z,34.00
2022-11-15T20:32:59.727Z,33.50
2022-11-15T20:35:47.192Z,40.20
2022-11-15T20:38:20.585Z,38.70
2022-11-15T20:40:57.565Z,36.80
2022-11-15T20:43:32.206Z,37.60
2022-11-15T20:46:04.398Z,36.80
2022-11-15T20:48:36.767Z,35.40
2022-11-15T20:51:12.473Z,33.20
2022-11-15T20:53:45.794Z,32.30
2022-11-15T20:56:19.489Z,32.50
2022-11-15T20:58:53.468Z,32.60
2022-11-15T21:01:26.045Z,27.80
2022-11-15T21:04:00.553Z,29.10
2022-11-15T21:06:36.266Z,26.70
2022-11-15T21:09:26.104Z,23.00
2022-11-15T21:12:13.711Z,20.70
2022-11-15T21:14:48.260Z,20.90
2022-11-15T21:17:21.597Z,21.80
2022-11-15T21:19:53.972Z,25.50
2022-11-15T21:22:28.489Z,20.40
2022-11-15T21:25:30.033Z,22.90
2022-11-15T21:28:10.141Z,22.90
2022-11-15T21:30:42.569Z,24.80
2022-11-15T21:33:14.917Z,25.20
2022-11-15T21:35:49.185Z,26.90
2022-11-15T21:38:23.505Z,28.20
2022-11-15T21:41:05.244Z,28.40
2022-11-15T21:43:37.368Z,28.70
2022-11-15T21:46:10.545Z,25.70
2022-11-15T21:48:42.685Z,27.40
2022-11-15T21:51:19.011Z,29.10
2022-11-15T21:53:51.463Z,27.50
2022-11-15T21:56:23.660Z,29.50
2022-11-15T21:58:56.379Z,31.20
2022-11-15T22:01:47.413Z,33.20
2022-11-15T22:04:21.592Z,31.10
2022-11-15T22:06:54.183Z,31.00
2022-11-15T22:09:26.372Z,34.80
2022-11-15T22:12:09.019Z,32.00
2022-11-15T22:14:41.244Z,32.00
2022-11-15T22:17:15.837Z,34.50
2022-11-15T22:19:52.829Z,34.50
2022-11-15T22:22:25.625Z,35.40
2022-11-15T22:24:58.291Z,32.00
2022-11-15T22:27:30.549Z,35.20
2022-11-15T22:30:02.738Z,36.30
2022-11-15T22:32:34.924Z,34.70
2022-11-15T22:35:07.785Z,30.90
2022-11-15T22:37:39.998Z,32.10
2022-11-15T22:40:13.557Z,34.30
2022-11-15T22:42:45.747Z,31.60
2022-11-15T22:45:18.416Z,30.90
2022-11-15T22:47:50.719Z,35.00
2022-11-15T22:50:23.240Z,36.10
2022-11-15T22:52:55.580Z,34.20
2022-11-15T22:55:27.747Z,33.00
2022-11-15T22:57:59.945Z,34.80
2022-11-15T23:00:34.361Z,35.20
2022-11-15T23:03:06.864Z,33.50
2022-11-15T23:05:47.135Z,33.20
2022-11-15T23:08:20.309Z,32.80
2022-11-15T23:11:10.200Z,34.20
2022-11-15T23:13:42.464Z,30.80
2022-11-15T23:16:23.912Z,31.30
2022-11-15T23:19:00.561Z,30.60
2022-11-15T23:21:54.500Z,33.10
2022-11-15T23:24:27.480Z,28.60
2022-11-15T23:27:02.963Z,28.40
2022-11-15T23:29:55.314Z,29.80
2022-11-15T23:32:45.062Z,28.60
2022-11-15T23:35:18.006Z,27.10
2022-11-15T23:37:50.222Z,26.00
2022-11-15T23:40:22.343Z,28.00
2022-11-15T23:42:55.352Z,25.50
2022-11-15T23:45:28.060Z,22.90
2022-11-15T23:48:19.248Z,25.40
2022-11-15T23:50:51.771Z,26.60
2022-11-15T23:53:24.035Z,26.90
2022-11-15T23:56:02.683Z,25.10
2022-11-15T23:58:35.348Z,26.10
